Time;durP1;ratioP1;P1;durP2;ratioP2;P2;SDS_P1;SDS_P2;PMS_P1;PMS_P2;Temp;Humidity;BMP_temperature;BMP_pressure;BME280_temperature;BME280_humidity;BME280_pressure;Samples;Min_cycle;Max_cycle;Signal;HPM_P1;HPM_P2
2023/08/18 00:01:45;;;;;;;16.63;10.63;;;;;;;21.00;nan;100545.13;5038870;28;20017;-74
2023/08/18 00:04:10;;;;;;;14.30;11.38;;;;;;;21.01;nan;100539.47;5037315;28;20050;-74
2023/08/18 00:06:36;;;;;;;13.73;10.85;;;;;;;21.00;nan;100542.47;5021636;28;20041;-74
2023/08/18 00:09:04;;;;;;;19.45;11.25;;;;;;;20.96;nan;100542.22;5037243;28;20045;-74
2023/08/18 00:11:29;;;;;;;13.73;10.77;;;;;;;20.99;nan;100544.31;5019543;28;20028;-75
2023/08/18 00:13:54;;;;;;;13.27;10.85;;;;;;;20.91;nan;100538.84;5023149;28;20033;-73
2023/08/18 00:16:20;;;;;;;12.27;10.98;;;;;;;20.96;nan;100552.16;5023184;28;20394;-73
2023/08/18 00:18:45;;;;;;;15.90;10.93;;;;;;;20.95;nan;100543.34;5022817;28;20514;-74
2023/08/18 00:21:10;;;;;;;13.80;11.02;;;;;;;20.92;nan;100537.75;5038738;28;20116;-74
2023/08/18 00:23:36;;;;;;;14.32;11.00;;;;;;;20.93;nan;100539.34;5022369;28;20032;-73
2023/08/18 00:26:01;;;;;;;15.63;11.10;;;;;;;20.72;nan;100515.56;5022089;28;20021;-74
2023/08/18 00:28:27;;;;;;;16.60;11.10;;;;;;;20.84;nan;100531.19;5019913;28;20096;-74
2023/08/18 00:30:52;;;;;;;15.75;11.05;;;;;;;20.90;nan;100543.41;5022651;28;20530;-74
2023/08/18 00:33:18;;;;;;;14.45;10.75;;;;;;;20.89;nan;100549.03;5021339;28;20033;-74
2023/08/18 00:35:43;;;;;;;12.68;10.88;;;;;;;20.87;nan;100543.97;5021955;28;20521;-74
2023/08/18 00:38:08;;;;;;;15.15;11.50;;;;;;;20.73;nan;100530.50;5017294;28;20040;-74
2023/08/18 00:40:34;;;;;;;16.40;11.10;;;;;;;20.69;nan;100534.88;5023472;28;20112;-74
2023/08/18 00:42:59;;;;;;;12.07;10.13;;;;;;;20.70;nan;100536.44;5018938;28;20060;-74
2023/08/18 00:45:25;;;;;;;14.85;10.77;;;;;;;20.73;nan;100540.44;5021511;28;20022;-74
2023/08/18 00:47:51;;;;;;;13.77;10.75;;;;;;;20.69;nan;100540.22;5021219;28;20029;-74
2023/08/18 00:50:18;;;;;;;14.00;10.60;;;;;;;20.71;nan;100542.59;5020956;28;20394;-74
2023/08/18 00:52:43;;;;;;;13.57;11.05;;;;;;;20.64;nan;100532.28;5017034;28;20492;-73
2023/08/18 00:55:11;;;;;;;13.77;10.65;;;;;;;20.68;nan;100540.50;5020428;28;20056;-75
2023/08/18 00:57:38;;;;;;;15.73;11.13;;;;;;;20.58;nan;100518.16;5022455;28;20091;-74
2023/08/18 01:00:04;;;;;;;13.95;10.68;;;;;;;20.60;nan;100525.91;5021720;28;20057;-74
2023/08/18 01:02:30;;;;;;;14.02;11.48;;;;;;;20.54;nan;100521.66;5021545;28;20634;-74
2023/08/18 01:05:00;;;;;;;14.63;11.23;;;;;;;20.57;nan;100524.59;5020858;28;20029;-74
2023/08/18 01:07:26;;;;;;;16.65;12.05;;;;;;;20.58;nan;100528.84;5021951;28;20071;-73
2023/08/18 01:09:51;;;;;;;15.23;10.95;;;;;;;20.57;nan;100521.91;5020972;28;20495;-73
2023/08/18 01:12:19;;;;;;;17.25;11.50;;;;;;;20.55;nan;100524.09;5021568;28;20051;-74
2023/08/18 01:15:22;;;;;;;14.63;11.00;;;;;;;20.53;nan;100523.53;5018798;28;20044;-74
2023/08/18 01:17:54;;;;;;;17.20;11.20;;;;;;;20.41;nan;100509.81;5023034;28;20029;-73
2023/08/18 01:20:20;;;;;;;17.42;11.43;;;;;;;20.49;nan;100527.88;5023863;28;20053;-74
2023/08/18 01:23:08;;;;;;;19.17;10.95;;;;;;;20.42;nan;100522.06;5021278;28;20498;-73
2023/08/18 01:25:33;;;;;;;15.55;11.30;;;;;;;20.37;nan;100508.78;5021151;28;20030;-72
2023/08/18 01:28:01;;;;;;;17.77;11.55;;;;;;;20.34;nan;100509.34;5019957;28;20557;-70
2023/08/18 01:30:37;;;;;;;15.27;11.80;;;;;;;20.38;nan;100513.06;5021380;28;20117;-72
2023/08/18 01:33:14;;;;;;;14.75;12.30;;;;;;;20.35;nan;100514.44;5021032;28;20033;-73
2023/08/18 01:35:44;;;;;;;15.73;11.35;;;;;;;20.28;nan;100505.97;5019552;28;20030;-74
2023/08/18 01:38:10;;;;;;;;;;;;;;;20.33;nan;100511.25;5037108;28;20069;-71
2023/08/18 01:40:37;;;;;;;15.88;11.35;;;;;;;20.24;nan;100501.47;5023731;28;19916;-73
2023/08/18 01:43:04;;;;;;;16.58;12.02;;;;;;;20.26;nan;100504.66;5022912;28;20029;-74
2023/08/18 01:45:29;;;;;;;17.20;12.10;;;;;;;20.25;nan;100509.19;5023567;28;20125;-73
2023/08/18 01:47:54;;;;;;;14.32;12.00;;;;;;;20.24;nan;100506.81;5024465;28;20550;-73
2023/08/18 01:50:20;;;;;;;20.58;11.98;;;;;;;20.17;nan;100507.94;5025565;28;20021;-73
2023/08/18 01:52:45;;;;;;;17.15;11.90;;;;;;;20.23;nan;100519.38;5023679;28;20029;-73
2023/08/18 01:55:10;;;;;;;16.95;11.68;;;;;;;20.21;nan;100524.25;5028814;28;20534;-73
2023/08/18 01:57:36;;;;;;;17.85;11.90;;;;;;;20.16;nan;100525.09;5020204;28;20032;-73
2023/08/18 02:00:01;;;;;;;17.98;12.05;;;;;;;20.09;nan;100513.16;5025444;28;20140;-73
2023/08/18 02:02:27;;;;;;;17.23;11.93;;;;;;;20.09;nan;100521.19;5022558;28;20025;-73
2023/08/18 02:04:54;;;;;;;19.63;12.60;;;;;;;20.02;nan;100526.88;5025440;28;20470;-74
2023/08/18 02:07:20;;;;;;;19.42;12.18;;;;;;;19.90;nan;100532.59;5023872;28;20120;-74
2023/08/18 02:09:45;;;;;;;14.95;12.50;;;;;;;19.92;nan;100534.97;5020318;28;20121;-74
2023/08/18 02:12:11;;;;;;;19.45;12.43;;;;;;;19.91;nan;100526.16;5025055;28;20018;-74
2023/08/18 02:14:36;;;;;;;19.30;11.88;;;;;;;19.91;nan;100536.06;5022585;28;20037;-74
2023/08/18 02:17:01;;;;;;;15.32;12.50;;;;;;;19.87;nan;100538.53;5025824;28;20037;-74
2023/08/18 02:19:27;;;;;;;19.65;12.55;;;;;;;19.93;nan;100542.72;5025564;28;20420;-73
2023/08/18 02:21:52;;;;;;;19.08;13.20;;;;;;;19.84;nan;100538.28;5025897;28;20041;-74
2023/08/18 02:24:17;;;;;;;18.00;12.27;;;;;;;19.83;nan;100540.16;5023989;28;20057;-74
2023/08/18 02:26:43;;;;;;;21.02;12.73;;;;;;;19.79;nan;100541.00;5022820;28;20033;-74
2023/08/18 02:29:08;;;;;;;19.02;13.93;;;;;;;19.78;nan;100545.56;5023754;28;20041;-74
2023/08/18 02:31:33;;;;;;;18.70;13.60;;;;;;;19.79;nan;100541.00;5022270;28;20025;-74
2023/08/18 02:33:59;;;;;;;24.40;14.38;;;;;;;19.79;nan;100533.78;5027038;28;20033;-74
2023/08/18 02:36:25;;;;;;;16.33;14.20;;;;;;;19.83;nan;100539.38;5023709;28;20041;-74
2023/08/18 02:38:50;;;;;;;17.00;13.80;;;;;;;19.71;nan;100531.72;5027010;28;20187;-74
2023/08/18 02:41:17;;;;;;;20.80;13.82;;;;;;;19.81;nan;100545.00;5025947;28;20018;-74
2023/08/18 02:43:50;;;;;;;20.77;14.63;;;;;;;19.73;nan;100527.69;5024283;28;20021;-74
2023/08/18 02:46:16;;;;;;;21.85;14.65;;;;;;;19.76;nan;100539.69;5024664;28;20499;-74
2023/08/18 02:48:41;;;;;;;19.05;13.93;;;;;;;19.79;nan;100536.44;5025999;28;20021;-74
2023/08/18 02:51:08;;;;;;;24.67;15.23;;;;;;;19.72;nan;100525.31;5037690;28;20079;-74
2023/08/18 02:53:34;;;;;;;19.08;14.40;;;;;;;19.69;nan;100523.19;5023469;28;20029;-74
2023/08/18 02:56:00;;;;;;;19.58;14.85;;;;;;;19.80;nan;100537.25;5024997;28;20434;-74
2023/08/18 02:58:27;;;;;;;23.85;14.68;;;;;;;19.75;nan;100540.75;5022482;28;20109;-73
2023/08/18 03:00:54;;;;;;;19.80;13.90;;;;;;;19.58;nan;100524.34;5025434;28;20029;-73
2023/08/18 03:03:19;;;;;;;21.48;14.43;;;;;;;19.62;nan;100522.72;5026230;28;20021;-72
2023/08/18 03:05:45;;;;;;;24.38;15.38;;;;;;;19.71;nan;100531.72;5024309;28;21002;-73
2023/08/18 03:08:11;;;;;;;18.73;14.50;;;;;;;19.60;nan;100519.50;5021849;28;20034;-73
2023/08/18 03:10:36;;;;;;;18.83;15.13;;;;;;;19.67;nan;100533.34;5018811;28;20036;-73
2023/08/18 03:13:03;;;;;;;20.27;16.23;;;;;;;19.68;nan;100529.59;5025937;28;20035;-73
2023/08/18 03:15:29;;;;;;;20.73;15.52;;;;;;;19.59;nan;100517.94;5025927;28;20112;-73
2023/08/18 03:17:55;;;;;;;22.15;15.40;;;;;;;19.60;nan;100539.00;5021652;28;20041;-73
2023/08/18 03:20:21;;;;;;;21.00;15.25;;;;;;;19.54;nan;100537.47;5024268;28;20632;-72
2023/08/18 03:22:46;;;;;;;28.10;15.68;;;;;;;19.50;nan;100529.22;5001154;28;20040;-72
2023/08/18 03:25:11;;;;;;;26.15;15.23;;;;;;;19.48;nan;100525.22;5021095;28;20025;-72
2023/08/18 03:27:37;;;;;;;22.83;15.55;;;;;;;19.43;nan;100523.41;5024828;28;20042;-72
2023/08/18 03:30:04;;;;;;;21.85;15.05;;;;;;;19.48;nan;100531.38;5022209;28;20021;-73
2023/08/18 03:32:29;;;;;;;18.83;15.77;;;;;;;19.41;nan;100522.88;5021479;28;20475;-72
2023/08/18 03:34:55;;;;;;;21.42;16.05;;;;;;;19.44;nan;100533.03;5025012;28;20040;-72
2023/08/18 03:37:20;;;;;;;21.75;15.63;;;;;;;19.40;nan;100531.97;5023163;28;20014;-72
2023/08/18 03:39:46;;;;;;;21.35;16.17;;;;;;;19.31;nan;100515.75;5020166;28;20126;-73
2023/08/18 03:42:11;;;;;;;20.90;16.35;;;;;;;19.37;nan;100535.22;5024272;28;20033;-70
2023/08/18 03:44:37;;;;;;;20.45;15.82;;;;;;;19.39;nan;100538.38;5023959;28;20017;-73
2023/08/18 03:47:03;;;;;;;23.45;15.52;;;;;;;19.37;nan;100543.22;5026265;28;20112;-73
2023/08/18 03:49:28;;;;;;;21.58;15.68;;;;;;;19.36;nan;100546.97;5019821;28;20053;-72
2023/08/18 03:51:55;;;;;;;23.85;15.07;;;;;;;19.37;nan;100545.09;5025044;28;20137;-73
2023/08/18 03:54:20;;;;;;;22.17;15.82;;;;;;;19.22;nan;100513.97;5026676;28;20041;-72
2023/08/18 03:56:46;;;;;;;22.85;14.90;;;;;;;19.31;nan;100533.66;5023485;28;20057;-72
2023/08/18 03:59:11;;;;;;;28.75;15.43;;;;;;;19.27;nan;100527.28;5022376;28;20041;-73
2023/08/18 04:01:36;;;;;;;109.40;35.83;;;;;;;19.30;nan;100537.41;5025192;28;20045;-73
2023/08/18 04:04:03;;;;;;;21.67;16.10;;;;;;;19.31;nan;100531.00;5025534;28;20022;-73
2023/08/18 04:06:28;;;;;;;22.60;15.50;;;;;;;19.30;nan;100526.75;5021564;28;20577;-73
2023/08/18 04:09:21;;;;;;;23.83;14.63;;;;;;;19.29;nan;100525.91;5021788;28;20044;-73
2023/08/18 04:11:46;;;;;;;26.70;15.13;;;;;;;19.27;nan;100521.94;5022749;28;20033;-74
2023/08/18 04:14:12;;;;;;;22.90;14.75;;;;;;;19.32;nan;100530.72;5038174;28;20101;-75
2023/08/18 04:16:38;;;;;;;18.13;14.30;;;;;;;19.22;nan;100513.97;5023167;28;20052;-75
2023/08/18 04:19:03;;;;;;;19.13;14.50;;;;;;;19.27;nan;100522.72;5018534;28;20029;-75
2023/08/18 04:21:29;;;;;;;17.80;14.60;;;;;;;19.27;nan;100516.59;5019742;28;20086;-74
2023/08/18 04:23:55;;;;;;;20.73;14.57;;;;;;;19.28;nan;100520.88;5019919;28;20034;-72
2023/08/18 04:26:21;;;;;;;19.42;15.60;;;;;;;19.36;nan;100528.28;5018593;28;20045;-73
2023/08/18 04:28:46;;;;;;;17.95;14.50;;;;;;;19.33;nan;100520.84;5021627;28;20103;-73
2023/08/18 04:31:12;;;;;;;19.08;14.75;;;;;;;19.41;nan;100527.44;5020014;28;20033;-73
2023/08/18 04:33:38;;;;;;;19.60;14.30;;;;;;;19.48;nan;100530.56;5024356;28;20025;-73
2023/08/18 04:36:03;;;;;;;25.70;14.88;;;;;;;19.50;nan;100525.75;5025583;28;20029;-73
2023/08/18 04:38:29;;;;;;;20.10;15.95;;;;;;;19.57;nan;100531.56;5021973;28;20055;-73
2023/08/18 04:41:02;;;;;;;20.17;14.85;;;;;;;19.60;nan;100531.00;5021144;28;20146;-73
2023/08/18 04:43:29;;;;;;;23.27;14.60;;;;;;;19.67;nan;100530.66;5020695;28;20147;-74
2023/08/18 04:45:55;;;;;;;20.08;14.95;;;;;;;19.65;nan;100519.47;5020195;28;20100;-74
2023/08/18 04:48:21;;;;;;;21.50;14.82;;;;;;;19.73;nan;100525.03;5015082;28;20037;-73
2023/08/18 04:50:47;;;;;;;18.15;14.48;;;;;;;19.79;nan;100528.44;5019403;28;20029;-73
2023/08/18 04:53:12;;;;;;;19.15;14.15;;;;;;;20.23;nan;100585.44;5020762;28;20017;-73
2023/08/18 04:55:39;;;;;;;19.40;14.27;;;;;;;19.96;nan;100528.78;5026392;28;20041;-73
2023/08/18 04:58:05;;;;;;;23.88;14.48;;;;;;;19.97;nan;100530.38;5021809;28;20029;-70
2023/08/18 05:00:30;;;;;;;18.83;14.18;;;;;;;20.06;nan;100519.84;5016193;28;20091;-75
2023/08/18 05:02:55;;;;;;;16.45;13.45;;;;;;;20.15;nan;100528.81;5028262;28;20029;-73
2023/08/18 05:05:21;;;;;;;23.20;14.70;;;;;;;20.22;nan;100527.69;5019257;28;20022;-73
2023/08/18 05:07:47;;;;;;;19.75;14.07;;;;;;;20.26;nan;100520.72;5020880;28;20026;-74
2023/08/18 05:10:12;;;;;;;17.33;13.43;;;;;;;20.33;nan;100529.97;5021672;28;20026;-74
2023/08/18 05:12:38;;;;;;;17.58;13.38;;;;;;;20.40;nan;100530.41;5014036;28;20033;-73
2023/08/18 05:15:04;;;;;;;16.55;12.68;;;;;;;20.43;nan;100528.25;5023103;28;20388;-73
2023/08/18 05:17:30;;;;;;;18.92;12.73;;;;;;;20.52;nan;100527.31;5022013;28;20033;-75
2023/08/18 05:19:55;;;;;;;13.55;11.57;;;;;;;20.53;nan;100526.22;5021640;28;20059;-72
2023/08/18 05:22:22;;;;;;;16.77;12.15;;;;;;;20.66;nan;100534.63;5039821;28;21525;-73
2023/08/18 05:24:48;;;;;;;12.85;11.20;;;;;;;20.73;nan;100535.88;5024835;28;20487;-72
2023/08/18 05:27:14;;;;;;;18.40;12.07;;;;;;;20.80;nan;100530.16;5022799;28;20037;-74
2023/08/18 05:29:39;;;;;;;16.70;10.90;;;;;;;20.88;nan;100532.19;5023414;28;20702;-73
2023/08/18 05:32:05;;;;;;;13.00;11.30;;;;;;;21.02;nan;100532.22;5022019;28;20042;-73
2023/08/18 05:34:30;;;;;;;14.30;10.38;;;;;;;21.11;nan;100532.38;5022861;28;20029;-72
2023/08/18 05:36:55;;;;;;;14.98;10.82;;;;;;;21.22;nan;100547.19;5024094;28;20099;-74
2023/08/18 05:39:21;;;;;;;19.67;10.45;;;;;;;21.27;nan;100540.97;5031527;28;20380;-74
2023/08/18 05:41:46;;;;;;;14.02;9.05;;;;;;;21.42;nan;100540.72;5028943;28;20037;-78
2023/08/18 05:44:12;;;;;;;15.82;9.45;;;;;;;21.60;nan;100544.47;5023514;28;20212;-72
2023/08/18 05:46:37;;;;;;;14.30;9.70;;;;;;;21.62;nan;100539.56;5022955;28;20087;-72
2023/08/18 05:49:03;;;;;;;12.23;9.00;;;;;;;21.77;nan;100547.34;5024236;28;20534;-73
2023/08/18 05:51:29;;;;;;;12.52;8.88;;;;;;;21.85;nan;100541.28;5022076;28;20037;-72
2023/08/18 05:53:55;;;;;;;11.98;9.88;;;;;;;21.95;nan;100547.56;5025597;28;20029;-74
2023/08/18 05:56:20;;;;;;;11.85;9.68;;;;;;;21.99;nan;100541.31;5024139;28;20026;-74
2023/08/18 05:58:46;;;;;;;14.93;10.32;;;;;;;22.04;nan;100540.41;5024555;28;20511;-72
2023/08/18 06:01:11;;;;;;;19.23;11.55;;;;;;;22.08;nan;100541.41;5026051;28;20619;-75
2023/08/18 06:03:37;;;;;;;14.27;10.57;;;;;;;22.17;nan;100541.50;5023821;28;20061;-74
2023/08/18 06:06:03;;;;;;;15.23;11.18;;;;;;;22.23;nan;100543.81;5025045;28;20033;-74
2023/08/18 06:08:28;;;;;;;13.05;10.57;;;;;;;22.29;nan;100547.19;5039837;28;20021;-73
2023/08/18 06:10:55;;;;;;;15.20;11.25;;;;;;;22.37;nan;100549.16;5039103;28;20029;-76
2023/08/18 06:13:21;;;;;;;17.35;10.93;;;;;;;22.46;nan;100558.09;5025524;28;20079;-76
2023/08/18 06:15:46;;;;;;;17.77;11.68;;;;;;;22.47;nan;100548.16;5026908;28;20033;-74
2023/08/18 06:18:11;;;;;;;11.45;10.23;;;;;;;22.57;nan;100541.78;5024746;28;20570;-75
2023/08/18 06:20:37;;;;;;;15.07;10.50;;;;;;;22.61;nan;100542.78;5026772;28;20025;-76
2023/08/18 06:23:02;;;;;;;16.73;11.15;;;;;;;22.67;nan;100545.03;5024776;28;20623;-76
2023/08/18 06:25:28;;;;;;;11.65;10.25;;;;;;;22.79;nan;100560.59;5024178;28;20017;-81
2023/08/18 06:27:53;;;;;;;14.70;10.02;;;;;;;22.88;nan;100563.38;5026017;28;20068;-81
2023/08/18 06:30:18;;;;;;;17.75;10.57;;;;;;;22.92;nan;100564.34;5022953;28;20116;-81
2023/08/18 06:32:45;;;;;;;14.68;10.40;;;;;;;23.02;nan;100566.84;5023201;28;20052;-81
2023/08/18 06:35:11;;;;;;;13.35;9.40;;;;;;;23.05;nan;100555.47;5026079;28;20036;-80
2023/08/18 06:37:36;;;;;;;11.98;9.35;;;;;;;23.14;nan;100566.28;5023627;28;20029;-80
2023/08/18 06:40:02;;;;;;;15.75;9.63;;;;;;;23.22;nan;100562.06;5024147;28;20033;-75
2023/08/18 06:42:27;;;;;;;14.55;9.35;;;;;;;23.36;nan;100568.16;5023239;28;20069;-75
2023/08/18 06:44:53;;;;;;;13.57;9.15;;;;;;;23.45;nan;100557.47;5037373;28;20037;-75
2023/08/18 06:47:18;;;;;;;14.77;9.35;;;;;;;23.51;nan;100559.75;5026419;28;20022;-75
2023/08/18 06:49:43;;;;;;;15.38;9.45;;;;;;;23.57;nan;100574.63;5021703;28;20029;-73
2023/08/18 06:52:09;;;;;;;13.18;9.18;;;;;;;23.62;nan;100570.22;5022796;28;20108;-75
2023/08/18 06:54:34;;;;;;;13.18;9.10;;;;;;;23.64;nan;100557.28;5024689;28;20026;-77
2023/08/18 06:57:00;;;;;;;13.77;8.20;;;;;;;23.77;nan;100562.56;5026139;28;20052;-76
2023/08/18 06:59:26;;;;;;;13.90;9.13;;;;;;;23.90;nan;100566.28;5027017;28;20029;-76
2023/08/18 07:01:53;;;;;;;19.65;9.32;;;;;;;23.93;nan;100565.66;5023743;28;20037;-76
2023/08/18 07:04:19;;;;;;;13.02;8.43;;;;;;;24.01;nan;100571.38;5028927;28;20029;-77
2023/08/18 07:06:44;;;;;;;13.30;8.70;;;;;;;24.03;nan;100569.16;5030335;28;20025;-76
2023/08/18 07:09:10;;;;;;;16.35;8.75;;;;;;;24.13;nan;100577.75;5028272;28;20535;-76
2023/08/18 07:11:36;;;;;;;12.35;8.55;;;;;;;24.20;nan;100585.38;5024408;28;20112;-75
2023/08/18 07:14:03;;;;;;;9.43;8.27;;;;;;;24.20;nan;100566.53;5024872;28;20112;-74
2023/08/18 07:16:29;;;;;;;9.57;8.52;;;;;;;24.36;nan;100578.44;5024434;28;20670;-74
2023/08/18 07:18:54;;;;;;;11.63;8.23;;;;;;;24.38;nan;100562.78;5024176;28;20037;-74
2023/08/18 07:21:20;;;;;;;13.65;8.27;;;;;;;24.59;nan;100584.56;5037661;28;20487;-74
2023/08/18 07:23:45;;;;;;;16.40;8.95;;;;;;;24.70;nan;100587.72;5023362;28;20082;-74
2023/08/18 07:26:10;;;;;;;10.52;8.18;;;;;;;24.75;nan;100584.09;5022944;28;20535;-74
2023/08/18 07:28:36;;;;;;;11.10;8.75;;;;;;;24.95;nan;100585.34;5023679;28;20168;-74
2023/08/18 07:31:04;;;;;;;11.52;8.30;;;;;;;25.08;nan;100589.78;5023573;28;20032;-73
2023/08/18 07:33:30;;;;;;;9.95;8.73;;;;;;;25.06;nan;100578.53;5023146;28;20116;-74
2023/08/18 07:35:56;;;;;;;12.48;8.13;;;;;;;25.14;nan;100579.63;5021729;28;20049;-74
2023/08/18 07:38:22;;;;;;;14.15;7.20;;;;;;;25.34;nan;100589.00;5024698;28;20475;-71
2023/08/18 07:40:47;;;;;;;9.65;7.32;;;;;;;25.32;nan;100580.44;5026836;28;20037;-72
2023/08/18 07:43:14;;;;;;;14.02;7.07;;;;;;;25.45;nan;100587.53;5024409;28;20056;-71
2023/08/18 07:45:39;;;;;;;10.75;7.30;;;;;;;25.62;nan;100601.00;5023133;28;20063;-73
2023/08/18 07:48:05;;;;;;;12.98;6.40;;;;;;;25.74;nan;100596.84;5035020;28;20061;-72
2023/08/18 07:50:31;;;;;;;10.15;7.72;;;;;;;25.74;nan;100586.84;5021906;28;20435;-72
2023/08/18 07:52:56;;;;;;;10.90;7.35;;;;;;;25.83;nan;100598.38;5023547;28;20029;-72
2023/08/18 07:55:22;;;;;;;15.13;6.53;;;;;;;25.81;nan;100592.53;5023124;28;20033;-75
2023/08/18 07:57:48;;;;;;;11.30;7.00;;;;;;;25.83;nan;100582.19;5020628;28;20060;-75
2023/08/18 08:00:17;;;;;;;10.38;7.28;;;;;;;25.89;nan;100589.03;5019828;28;20451;-76
2023/08/18 08:02:47;;;;;;;13.77;7.78;;;;;;;26.00;nan;100594.06;5024287;28;20107;-75
2023/08/18 08:05:12;;;;;;;9.30;7.43;;;;;;;26.01;nan;100590.28;5021549;28;20028;-75
2023/08/18 08:07:38;;;;;;;8.50;5.97;;;;;;;26.23;nan;100600.00;5022576;28;20033;-74
2023/08/18 08:10:04;;;;;;;8.43;6.30;;;;;;;26.30;nan;100594.88;5040688;28;20029;-75
2023/08/18 08:12:31;;;;;;;11.93;6.60;;;;;;;26.33;nan;100596.16;5020931;28;20100;-75
2023/08/18 08:14:57;;;;;;;6.70;5.80;;;;;;;26.38;nan;100577.06;5022590;28;20124;-75
2023/08/18 08:17:23;;;;;;;9.65;6.07;;;;;;;26.56;nan;100596.69;5022598;28;20025;-74
2023/08/18 08:19:49;;;;;;;11.82;6.63;;;;;;;26.62;nan;100592.66;5021580;28;20060;-74
2023/08/18 08:22:16;;;;;;;14.05;6.40;;;;;;;26.65;nan;100605.50;5020284;28;20017;-74
2023/08/18 08:24:41;;;;;;;9.75;6.00;;;;;;;26.58;nan;100586.31;5038279;28;20569;-74
2023/08/18 08:27:07;;;;;;;16.00;6.22;;;;;;;26.80;nan;100607.63;5022314;28;20013;-75
2023/08/18 08:29:32;;;;;;;7.68;6.20;;;;;;;26.82;nan;100602.69;5024048;28;20053;-76
2023/08/18 08:31:57;;;;;;;10.50;6.20;;;;;;;26.90;nan;100604.53;5025082;28;20025;-76
2023/08/18 08:34:23;;;;;;;8.77;5.80;;;;;;;27.02;nan;100606.50;5019603;28;20040;-76
2023/08/18 08:36:48;;;;;;;7.88;6.35;;;;;;;27.04;nan;100598.06;5019775;28;20034;-76
2023/08/18 08:39:14;;;;;;;8.85;6.00;;;;;;;27.11;nan;100593.69;5019864;28;20025;-76
2023/08/18 08:41:39;;;;;;;6.57;5.68;;;;;;;27.19;nan;100608.28;5017772;28;20117;-76
2023/08/18 08:44:05;;;;;;;7.43;5.95;;;;;;;27.13;nan;100591.47;5020245;28;20041;-75
2023/08/18 08:46:31;;;;;;;10.10;6.20;;;;;;;27.21;nan;100602.56;5039672;28;20026;-76
2023/08/18 08:49:01;;;;;;;10.65;5.72;;;;;;;27.26;nan;100600.44;5023407;28;20095;-76
2023/08/18 08:51:27;;;;;;;9.40;5.82;;;;;;;27.27;nan;100593.91;5022349;28;20033;-72
2023/08/18 08:53:59;;;;;;;8.30;5.40;;;;;;;27.32;nan;100599.09;5028769;28;20697;-72
2023/08/18 08:56:30;;;;;;;5.57;4.78;;;;;;;27.54;nan;100587.09;5026902;28;20065;-72
2023/08/18 08:58:56;;;;;;;7.82;5.47;;;;;;;27.68;nan;100594.91;5026679;28;20122;-71
2023/08/18 09:01:22;;;;;;;11.55;6.18;;;;;;;27.66;nan;100586.34;5029104;28;20661;-76
2023/08/18 09:03:49;;;;;;;11.32;6.68;;;;;;;27.82;nan;100599.97;5027433;28;20846;-75
2023/08/18 09:06:14;;;;;;;7.50;5.35;;;;;;;27.87;nan;100596.28;5045013;28;20053;-77
2023/08/18 09:08:41;;;;;;;9.20;5.28;;;;;;;27.90;nan;100595.66;5025917;28;20060;-72
2023/08/18 09:11:07;;;;;;;13.00;6.78;;;;;;;27.97;nan;100591.25;5027765;28;20029;-77
2023/08/18 09:13:34;;;;;;;6.72;5.93;;;;;;;28.14;nan;100592.94;5026194;28;20035;-77
2023/08/18 09:16:02;;;;;;;7.40;5.10;;;;;;;28.19;nan;100603.53;5031602;28;20053;-77
2023/08/18 09:18:28;;;;;;;6.63;5.50;;;;;;;28.18;nan;100580.31;5030320;28;20018;-76
2023/08/18 09:20:55;;;;;;;5.90;5.13;;;;;;;28.34;nan;100593.16;5027921;28;20896;-76
2023/08/18 09:23:23;;;;;;;7.78;5.60;;;;;;;28.39;nan;100588.28;5031469;28;20044;-77
2023/08/18 09:25:50;;;;;;;6.47;5.47;;;;;;;28.44;nan;100592.66;5030728;28;20033;-76
2023/08/18 09:28:15;;;;;;;8.23;5.38;;;;;;;28.48;nan;100585.47;5026861;28;20133;-76
2023/08/18 09:30:40;;;;;;;7.75;5.15;;;;;;;28.61;nan;100583.53;5026200;28;20112;-77
2023/08/18 09:33:06;;;;;;;10.63;5.38;;;;;;;28.67;nan;100582.16;5030234;28;20025;-77
2023/08/18 09:35:34;;;;;;;7.00;4.70;;;;;;;28.81;nan;100596.13;5029438;28;20025;-77
2023/08/18 09:38:00;;;;;;;8.52;4.50;;;;;;;28.86;nan;100592.38;5027569;28;20032;-77
2023/08/18 09:40:26;;;;;;;10.40;4.70;;;;;;;29.00;nan;100590.06;5030978;28;20055;-77
2023/08/18 09:42:52;;;;;;;8.10;4.60;;;;;;;29.00;nan;100583.88;5024957;28;20049;-77
2023/08/18 09:45:22;;;;;;;11.23;4.80;;;;;;;29.14;nan;100591.63;5027891;28;20028;-77
2023/08/18 09:47:50;;;;;;;6.07;4.60;;;;;;;29.18;nan;100573.53;5027805;28;20021;-76
2023/08/18 09:50:19;;;;;;;6.93;4.75;;;;;;;29.29;nan;100580.03;5029754;28;20022;-77
2023/08/18 09:52:48;;;;;;;7.75;4.53;;;;;;;29.35;nan;100592.19;5047188;28;20033;-77
2023/08/18 09:55:16;;;;;;;5.13;4.53;;;;;;;29.43;nan;100579.63;5027619;28;20033;-76
2023/08/18 09:58:03;;;;;;;6.95;4.63;;;;;;;29.50;nan;100582.50;5044929;28;20025;-77
2023/08/18 10:00:29;;;;;;;6.45;4.60;;;;;;;29.54;nan;100590.72;5028053;28;20107;-77
2023/08/18 10:02:59;;;;;;;7.82;4.47;;;;;;;29.60;nan;100584.72;5026616;28;20447;-76
2023/08/18 10:05:25;;;;;;;9.88;3.97;;;;;;;29.64;nan;100584.78;5043032;28;20025;-77
2023/08/18 10:07:51;;;;;;;7.22;4.25;;;;;;;29.66;nan;100585.22;5026223;28;20048;-77
2023/08/18 10:10:18;;;;;;;9.18;4.70;;;;;;;29.70;nan;100579.94;5024316;28;20056;-77
2023/08/18 10:12:44;;;;;;;6.50;4.28;;;;;;;29.79;nan;100589.47;5025569;28;20464;-77
2023/08/18 10:15:11;;;;;;;7.03;4.32;;;;;;;29.80;nan;100584.81;5026004;28;20025;-76
2023/08/18 10:17:37;;;;;;;7.90;4.82;;;;;;;29.86;nan;100589.66;5027740;28;20091;-77
2023/08/18 10:20:03;;;;;;;5.00;4.18;;;;;;;29.85;nan;100590.75;5023619;28;20033;-76
2023/08/18 10:22:32;;;;;;;8.52;4.50;;;;;;;29.83;nan;100590.31;5025126;28;20446;-76
2023/08/18 10:24:57;;;;;;;8.32;4.47;;;;;;;29.81;nan;100584.47;5042523;28;20424;-76
2023/08/18 10:27:26;;;;;;;8.52;4.38;;;;;;;29.85;nan;100585.34;5024860;28;20034;-76
2023/08/18 10:29:52;;;;;;;5.43;4.20;;;;;;;29.86;nan;100586.16;5025919;28;20564;-76
2023/08/18 10:32:18;;;;;;;7.25;4.35;;;;;;;29.87;nan;100583.06;5022335;28;20038;-76
2023/08/18 10:34:43;;;;;;;9.27;4.45;;;;;;;29.89;nan;100580.00;5023582;28;20080;-76
2023/08/18 10:37:14;;;;;;;11.40;4.53;;;;;;;29.94;nan;100585.16;5024534;28;20028;-76
2023/08/18 10:39:40;;;;;;;8.93;4.40;;;;;;;29.96;nan;100576.69;5024085;28;20387;-76
2023/08/18 10:42:15;;;;;;;5.97;4.63;;;;;;;29.98;nan;100568.94;5027814;28;20040;-77
2023/08/18 10:45:06;;;;;;;9.15;4.70;;;;;;;30.08;nan;100582.78;5026787;28;20055;-76
2023/08/18 10:47:32;;;;;;;6.57;4.32;;;;;;;30.17;nan;100582.59;5023981;28;20032;-76
2023/08/18 10:49:59;;;;;;;6.68;3.80;;;;;;;30.27;nan;100576.66;5027202;28;20025;-76
2023/08/18 10:52:30;;;;;;;7.07;4.63;;;;;;;30.35;nan;100576.81;5023970;28;20033;-74
2023/08/18 10:54:55;;;;;;;7.53;4.53;;;;;;;30.43;nan;100573.09;5025999;28;20518;-76
2023/08/18 10:57:21;;;;;;;6.90;4.40;;;;;;;30.52;nan;100565.53;5023737;28;20033;-76
2023/08/18 10:59:46;;;;;;;11.95;4.68;;;;;;;30.58;nan;100571.47;5024989;28;20026;-76
2023/08/18 11:02:11;;;;;;;6.40;4.40;;;;;;;30.62;nan;100573.09;5023276;28;20377;-76
2023/08/18 11:04:37;;;;;;;10.40;4.50;;;;;;;30.67;nan;100575.56;5026183;28;20071;-76
2023/08/18 11:07:04;;;;;;;6.75;4.53;;;;;;;30.74;nan;100578.44;5026289;28;20355;-76
2023/08/18 11:09:31;;;;;;;11.30;4.40;;;;;;;30.67;nan;100577.47;5022510;28;20080;-77
2023/08/18 11:11:56;;;;;;;5.20;4.30;;;;;;;30.71;nan;100562.81;5025707;28;20052;-76
2023/08/18 11:14:21;;;;;;;6.13;4.25;;;;;;;30.78;nan;100564.13;5022184;28;20109;-76
2023/08/18 11:16:47;;;;;;;7.88;4.53;;;;;;;30.88;nan;100579.88;5023275;28;20030;-76
2023/08/18 11:19:14;;;;;;;10.02;4.72;;;;;;;30.90;nan;100577.59;5024854;28;20083;-76
2023/08/18 11:21:40;;;;;;;5.43;4.32;;;;;;;30.99;nan;100575.44;5023837;28;20033;-76
2023/08/18 11:24:08;;;;;;;7.90;4.35;;;;;;;30.93;nan;100564.03;5022267;28;20029;-76
2023/08/18 11:26:36;;;;;;;5.78;4.55;;;;;;;31.07;nan;100566.25;5022679;28;20087;-76
2023/08/18 11:29:04;;;;;;;7.80;4.78;;;;;;;31.14;nan;100571.03;5023785;28;20053;-76